Time;durP1;ratioP1;P1;durP2;ratioP2;P2;SDS_P1;SDS_P2;PMS_P1;PMS_P2;Temp;Humidity;BMP_temperature;BMP_pressure;BME280_temperature;BME280_humidity;BME280_pressure;Samples;Min_cycle;Max_cycle;Signal;HPM_P1;HPM_P2
2024/01/10 00:01:35;;;;;;;0.00;0.00;;;;;;;;;;5015881;28;20033;-79
2024/01/10 00:04:01;;;;;;;0.00;0.00;;;;;;;;;;4999780;28;20049;-79
2024/01/10 00:06:26;;;;;;;0.00;0.00;;;;;;;;;;5015961;28;20422;-79
2024/01/10 00:08:52;;;;;;;0.00;0.00;;;;;;;;;;5015674;28;20034;-80
2024/01/10 00:11:17;;;;;;;0.00;0.00;;;;;;;;;;5015729;28;20091;-79
2024/01/10 00:13:43;;;;;;;0.00;0.00;;;;;;;;;;5015631;28;20049;-79
2024/01/10 00:16:11;;;;;;;0.00;0.00;;;;;;;;;;5015957;28;20037;-79
2024/01/10 00:18:37;;;;;;;0.00;0.00;;;;;;;;;;4998834;28;20120;-80
2024/01/10 00:21:02;;;;;;;0.00;0.00;;;;;;;;;;5015675;28;20139;-79
2024/01/10 00:23:28;;;;;;;0.00;0.00;;;;;;;;;;5015487;28;20040;-82
2024/01/10 00:25:54;;;;;;;0.00;0.00;;;;;;;;;;5015562;28;20013;-80
2024/01/10 00:28:19;;;;;;;0.00;0.00;;;;;;;;;;5006749;28;20362;-81
2024/01/10 00:30:47;;;;;;;0.00;0.00;;;;;;;;;;5038511;28;20043;-80
2024/01/10 00:33:14;;;;;;;0.00;0.00;;;;;;;;;;5055730;28;20357;-80
2024/01/10 00:35:39;;;;;;;0.00;0.00;;;;;;;;;;5055111;28;20110;-80
2024/01/10 00:38:05;;;;;;;0.00;0.00;;;;;;;;;;5022257;28;20446;-80
2024/01/10 00:40:31;;;;;;;0.00;0.00;;;;;;;;;;5038646;28;20040;-80
2024/01/10 00:42:56;;;;;;;0.00;0.00;;;;;;;;;;5055334;28;20047;-80
2024/01/10 00:45:22;;;;;;;0.00;0.00;;;;;;;;;;5073034;28;20121;-80
2024/01/10 00:47:51;;;;;;;0.00;0.00;;;;;;;;;;5055278;28;20197;-80
2024/01/10 00:50:16;;;;;;;0.00;0.00;;;;;;;;;;5073034;28;20427;-81
2024/01/10 00:52:45;;;;;;;0.00;0.00;;;;;;;;;;5038379;28;20032;-80
2024/01/10 00:55:10;;;;;;;0.00;0.00;;;;;;;;;;5038847;28;20032;-80
2024/01/10 00:57:38;;;;;;;0.00;0.00;;;;;;;;;;5039132;28;20195;-80
2024/01/10 01:00:05;;;;;;;0.00;0.00;;;;;;;;;;4999705;28;20038;-79
2024/01/10 01:02:31;;;;;;;0.00;0.00;;;;;;;;;;4999431;28;20029;-81
2024/01/10 01:04:56;;;;;;;0.00;0.00;;;;;;;;;;5031841;28;20029;-81
2024/01/10 01:07:22;;;;;;;0.00;0.00;;;;;;;;;;5015129;28;20025;-80
2024/01/10 01:09:47;;;;;;;0.00;0.00;;;;;;;;;;5015416;28;20033;-80
2024/01/10 01:12:13;;;;;;;0.00;0.00;;;;;;;;;;5015254;28;20595;-81
2024/01/10 01:14:38;;;;;;;0.00;0.00;;;;;;;;;;5015402;28;20029;-80
2024/01/10 01:17:04;;;;;;;0.00;0.00;;;;;;;;;;4999241;28;20029;-79
2024/01/10 01:19:29;;;;;;;0.00;0.00;;;;;;;;;;5032824;28;20052;-80
2024/01/10 01:21:55;;;;;;;0.00;0.00;;;;;;;;;;4998611;28;20396;-79
2024/01/10 01:24:20;;;;;;;0.00;0.00;;;;;;;;;;5032935;28;20033;-79
2024/01/10 01:26:46;;;;;;;0.00;0.00;;;;;;;;;;5032796;28;20034;-80
2024/01/10 01:29:11;;;;;;;0.00;0.00;;;;;;;;;;5031563;28;20044;-80
2024/01/10 01:31:38;;;;;;;0.00;0.00;;;;;;;;;;5014758;28;20037;-80
2024/01/10 01:34:03;;;;;;;0.00;0.00;;;;;;;;;;5012978;28;20118;-79
2024/01/10 01:36:29;;;;;;;0.00;0.00;;;;;;;;;;4998771;28;20052;-79
2024/01/10 01:38:54;;;;;;;0.00;0.00;;;;;;;;;;5016399;28;20033;-79
2024/01/10 01:41:20;;;;;;;0.00;0.00;;;;;;;;;;5015289;28;20025;-80
2024/01/10 01:43:45;;;;;;;0.00;0.00;;;;;;;;;;5014892;28;20147;-80
2024/01/10 01:46:11;;;;;;;0.00;0.00;;;;;;;;;;4998761;28;20029;-78
2024/01/10 01:48:36;;;;;;;0.00;0.00;;;;;;;;;;5014900;28;20055;-78
2024/01/10 01:51:06;;;;;;;0.00;0.00;;;;;;;;;;5014836;28;20124;-80
2024/01/10 01:53:35;;;;;;;0.00;0.00;;;;;;;;;;5016035;28;20018;-79
2024/01/10 01:56:03;;;;;;;0.00;0.00;;;;;;;;;;4998949;28;20118;-79
2024/01/10 01:58:28;;;;;;;0.00;0.00;;;;;;;;;;5001484;28;20042;-79
2024/01/10 02:00:54;;;;;;;0.00;0.00;;;;;;;;;;5035773;28;20028;-79
2024/01/10 02:03:19;;;;;;;0.00;0.00;;;;;;;;;;5034889;28;20424;-79
2024/01/10 02:05:46;;;;;;;0.00;0.00;;;;;;;;;;5034262;28;20033;-79
2024/01/10 02:08:11;;;;;;;0.00;0.00;;;;;;;;;;5035617;28;20412;-79
2024/01/10 02:10:37;;;;;;;0.00;0.00;;;;;;;;;;5035544;28;20060;-79
2024/01/10 02:13:03;;;;;;;0.00;0.00;;;;;;;;;;5034288;28;20055;-79
2024/01/10 02:15:28;;;;;;;0.00;0.00;;;;;;;;;;5017844;28;20433;-78
2024/01/10 02:17:54;;;;;;;0.00;0.00;;;;;;;;;;5017721;28;20533;-79
2024/01/10 02:20:21;;;;;;;0.00;0.00;;;;;;;;;;5035192;28;20087;-78
2024/01/10 02:22:46;;;;;;;0.00;0.00;;;;;;;;;;5034597;28;20459;-79
2024/01/10 02:25:13;;;;;;;0.00;0.00;;;;;;;;;;5034200;28;20021;-79
2024/01/10 02:27:38;;;;;;;0.00;0.00;;;;;;;;;;5033954;28;20030;-79
2024/01/10 02:30:05;;;;;;;0.00;0.00;;;;;;;;;;5033712;28;20025;-79
2024/01/10 02:32:31;;;;;;;0.00;0.00;;;;;;;;;;5034086;28;20451;-79
2024/01/10 02:34:56;;;;;;;0.00;0.00;;;;;;;;;;5033786;28;20033;-79
2024/01/10 02:37:22;;;;;;;0.00;0.00;;;;;;;;;;5017400;28;20029;-79
2024/01/10 02:39:47;;;;;;;0.00;0.00;;;;;;;;;;5017095;28;20037;-79
2024/01/10 02:42:14;;;;;;;0.00;0.00;;;;;;;;;;5032862;28;20107;-79
2024/01/10 02:44:39;;;;;;;0.00;0.00;;;;;;;;;;5017594;28;20033;-79
2024/01/10 02:47:05;;;;;;;0.00;0.00;;;;;;;;;;5017225;28;20030;-78
2024/01/10 02:49:31;;;;;;;0.00;0.00;;;;;;;;;;5016716;28;20478;-79
2024/01/10 02:51:56;;;;;;;0.00;0.00;;;;;;;;;;5033618;28;20056;-79
2024/01/10 02:54:23;;;;;;;0.00;0.00;;;;;;;;;;5017211;28;20026;-79
2024/01/10 02:56:48;;;;;;;0.00;0.00;;;;;;;;;;5022613;28;20049;-78
2024/01/10 02:59:14;;;;;;;0.00;0.00;;;;;;;;;;5053468;28;20044;-79
2024/01/10 03:01:39;;;;;;;0.00;0.00;;;;;;;;;;5054327;28;20025;-79
2024/01/10 03:04:04;;;;;;;0.00;0.00;;;;;;;;;;5053157;28;20032;-79
2024/01/10 03:06:30;;;;;;;0.00;0.00;;;;;;;;;;5036700;28;20064;-79
2024/01/10 03:08:56;;;;;;;0.00;0.00;;;;;;;;;;5054467;28;20051;-79
2024/01/10 03:11:21;;;;;;;0.00;0.00;;;;;;;;;;5053140;28;20405;-79
2024/01/10 03:13:47;;;;;;;0.00;0.00;;;;;;;;;;5054171;28;20021;-79
2024/01/10 03:16:13;;;;;;;0.00;0.00;;;;;;;;;;5020346;28;20029;-79
2024/01/10 03:18:39;;;;;;;0.00;0.00;;;;;;;;;;5052929;28;20033;-79
2024/01/10 03:21:04;;;;;;;0.00;0.00;;;;;;;;;;5020482;28;20075;-79
2024/01/10 03:23:30;;;;;;;0.00;0.00;;;;;;;;;;5036239;28;20033;-79
2024/01/10 03:25:56;;;;;;;0.00;0.00;;;;;;;;;;5053097;28;20029;-79
2024/01/10 03:28:22;;;;;;;0.00;0.00;;;;;;;;;;5054246;28;20025;-79
2024/01/10 03:30:47;;;;;;;0.00;0.00;;;;;;;;;;5052644;28;20186;-79
2024/01/10 03:33:13;;;;;;;0.00;0.00;;;;;;;;;;5019660;28;20021;-79
2024/01/10 03:35:38;;;;;;;0.00;0.00;;;;;;;;;;5052584;28;20091;-78
2024/01/10 03:38:04;;;;;;;0.00;0.00;;;;;;;;;;5052751;28;20021;-78
2024/01/10 03:40:29;;;;;;;0.00;0.00;;;;;;;;;;5036239;28;20312;-78
2024/01/10 03:42:55;;;;;;;0.00;0.00;;;;;;;;;;5052852;28;20021;-79
2024/01/10 03:45:22;;;;;;;0.00;0.00;;;;;;;;;;5019621;28;20079;-79
2024/01/10 03:47:50;;;;;;;0.00;0.00;;;;;;;;;;5053994;28;20063;-80
2024/01/10 03:50:18;;;;;;;0.00;0.00;;;;;;;;;;5053644;28;20366;-80
2024/01/10 03:52:44;;;;;;;0.00;0.00;;;;;;;;;;5036037;28;20025;-80
2024/01/10 03:55:10;;;;;;;0.00;0.00;;;;;;;;;;5052437;28;20079;-79
2024/01/10 03:57:35;;;;;;;0.00;0.00;;;;;;;;;;5065607;28;20086;-80
2024/01/10 04:00:01;;;;;;;0.00;0.00;;;;;;;;;;5073617;28;20039;-80
2024/01/10 04:02:27;;;;;;;0.00;0.00;;;;;;;;;;5041202;28;20090;-80
2024/01/10 04:04:54;;;;;;;0.00;0.00;;;;;;;;;;5003388;28;20051;-80
2024/01/10 04:07:19;;;;;;;0.00;0.00;;;;;;;;;;5035717;28;20486;-80
2024/01/10 04:09:45;;;;;;;0.00;0.00;;;;;;;;;;5035250;28;20167;-80
2024/01/10 04:12:10;;;;;;;0.00;0.00;;;;;;;;;;5035457;28;20036;-79
2024/01/10 04:14:36;;;;;;;0.00;0.00;;;;;;;;;;5053307;28;20439;-79
2024/01/10 04:17:03;;;;;;;0.00;0.00;;;;;;;;;;5035344;28;20056;-80
2024/01/10 04:19:28;;;;;;;0.00;0.00;;;;;;;;;;5019434;28;20017;-79
2024/01/10 04:21:54;;;;;;;0.00;0.00;;;;;;;;;;5053162;28;20358;-80
2024/01/10 04:24:19;;;;;;;0.00;0.00;;;;;;;;;;5002966;28;20438;-80
2024/01/10 04:26:45;;;;;;;0.15;0.15;;;;;;;;;;5019120;28;20094;-79
2024/01/10 04:29:10;;;;;;;0.10;0.10;;;;;;;;;;5035465;28;20033;-79
2024/01/10 04:31:37;;;;;;;0.38;0.30;;;;;;;;;;5018279;28;20036;-80
2024/01/10 04:34:02;;;;;;;0.20;0.20;;;;;;;;;;5022152;28;20037;-80
2024/01/10 04:36:28;;;;;;;0.10;0.10;;;;;;;;;;5038988;28;20115;-79
2024/01/10 04:38:53;;;;;;;0.10;0.10;;;;;;;;;;5055598;28;20461;-79
2024/01/10 04:41:19;;;;;;;0.00;0.00;;;;;;;;;;5055238;28;20537;-79
2024/01/10 04:43:44;;;;;;;0.13;0.10;;;;;;;;;;5038659;28;20039;-80
2024/01/10 04:46:10;;;;;;;0.00;0.00;;;;;;;;;;5054876;28;20025;-80
2024/01/10 04:48:36;;;;;;;0.00;0.00;;;;;;;;;;5055401;28;20029;-80
2024/01/10 04:51:02;;;;;;;0.10;0.10;;;;;;;;;;5038726;28;20028;-80
2024/01/10 04:53:27;;;;;;;0.00;0.00;;;;;;;;;;5073064;28;20028;-78
2024/01/10 04:55:53;;;;;;;0.00;0.00;;;;;;;;;;5072951;28;20381;-78
2024/01/10 04:58:19;;;;;;;0.00;0.00;;;;;;;;;;5038591;28;20051;-79
2024/01/10 05:00:44;;;;;;;0.00;0.00;;;;;;;;;;5055003;28;20081;-79
2024/01/10 05:03:10;;;;;;;0.00;0.00;;;;;;;;;;5034059;28;20527;-80
2024/01/10 05:05:36;;;;;;;0.00;0.00;;;;;;;;;;5019880;28;20029;-80
2024/01/10 05:08:01;;;;;;;0.00;0.00;;;;;;;;;;5039181;28;20052;-80
2024/01/10 05:10:27;;;;;;;0.03;0.03;;;;;;;;;;5022575;28;20465;-80
2024/01/10 05:12:53;;;;;;;0.00;0.00;;;;;;;;;;5039223;28;20051;-80
2024/01/10 05:15:19;;;;;;;0.00;0.00;;;;;;;;;;5022152;28;20036;-80
2024/01/10 05:17:44;;;;;;;0.00;0.00;;;;;;;;;;5056220;28;20112;-79
2024/01/10 05:20:10;;;;;;;0.00;0.00;;;;;;;;;;5022036;28;20182;-80
2024/01/10 05:22:35;;;;;;;0.00;0.00;;;;;;;;;;5038485;28;20024;-79
2024/01/10 05:25:01;;;;;;;0.00;0.00;;;;;;;;;;5038598;28;20091;-79
2024/01/10 05:27:27;;;;;;;0.00;0.00;;;;;;;;;;5022230;28;20178;-79
2024/01/10 05:29:52;;;;;;;0.00;0.00;;;;;;;;;;5023865;28;20098;-79
2024/01/10 05:32:18;;;;;;;0.00;0.00;;;;;;;;;;5025379;28;20450;-79
2024/01/10 05:34:45;;;;;;;0.00;0.00;;;;;;;;;;5058263;28;20036;-80
2024/01/10 05:37:10;;;;;;;0.00;0.00;;;;;;;;;;5041642;28;20123;-78
2024/01/10 05:39:36;;;;;;;0.00;0.00;;;;;;;;;;5075613;28;20048;-81
2024/01/10 05:42:02;;;;;;;0.00;0.00;;;;;;;;;;5007780;28;20029;-80
2024/01/10 05:44:29;;;;;;;0.00;0.00;;;;;;;;;;5017943;28;20032;-83
2024/01/10 05:46:54;;;;;;;0.00;0.00;;;;;;;;;;5003393;28;20363;-83
2024/01/10 05:49:22;;;;;;;0.00;0.00;;;;;;;;;;4985713;28;20124;-80
2024/01/10 05:51:47;;;;;;;0.00;0.00;;;;;;;;;;5036165;28;20073;-80
2024/01/10 05:54:13;;;;;;;0.00;0.00;;;;;;;;;;5029825;28;20071;-81
2024/01/10 05:56:38;;;;;;;0.00;0.00;;;;;;;;;;5056356;28;20481;-81
2024/01/10 05:59:05;;;;;;;0.00;0.00;;;;;;;;;;5039552;28;20033;-80
2024/01/10 06:01:31;;;;;;;0.00;0.00;;;;;;;;;;5035585;28;20033;-81
2024/01/10 06:04:34;;;;;;;0.00;0.00;;;;;;;;;;5013154;28;20030;-83
2024/01/10 06:07:01;;;;;;;0.00;0.00;;;;;;;;;;5032560;28;20032;-81
2024/01/10 06:09:26;;;;;;;0.00;0.00;;;;;;;;;;5026720;28;20043;-80
2024/01/10 06:11:52;;;;;;;0.00;0.00;;;;;;;;;;5054716;28;20445;-79
2024/01/10 06:14:21;;;;;;;0.00;0.00;;;;;;;;;;5032140;28;20036;-80
2024/01/10 06:16:46;;;;;;;0.00;0.00;;;;;;;;;;5048021;28;20421;-81
2024/01/10 06:19:24;;;;;;;0.00;0.00;;;;;;;;;;5048881;28;20140;-81
2024/01/10 06:21:52;;;;;;;0.00;0.00;;;;;;;;;;5016933;28;20036;-78
2024/01/10 06:24:21;;;;;;;0.00;0.00;;;;;;;;;;5016848;28;20041;-80
2024/01/10 06:26:46;;;;;;;0.00;0.00;;;;;;;;;;5033579;28;20520;-78
2024/01/10 06:29:12;;;;;;;0.00;0.00;;;;;;;;;;5031635;28;20040;-78
2024/01/10 06:31:38;;;;;;;0.00;0.00;;;;;;;;;;5033387;28;20091;-80
2024/01/10 06:34:07;;;;;;;0.00;0.00;;;;;;;;;;5041523;28;20048;-81
2024/01/10 06:36:35;;;;;;;0.00;0.00;;;;;;;;;;5021575;28;20174;-81
2024/01/10 06:39:07;;;;;;;0.00;0.00;;;;;;;;;;5035842;28;20029;-81
2024/01/10 06:41:35;;;;;;;0.00;0.00;;;;;;;;;;5036917;28;20469;-82
2024/01/10 06:44:03;;;;;;;0.00;0.00;;;;;;;;;;5030122;28;20037;-77
2024/01/10 06:46:30;;;;;;;0.00;0.00;;;;;;;;;;5033764;28;20072;-79
2024/01/10 06:48:56;;;;;;;0.00;0.00;;;;;;;;;;5039506;28;20029;-81
2024/01/10 06:51:21;;;;;;;0.00;0.00;;;;;;;;;;5058835;28;20033;-81
2024/01/10 06:53:47;;;;;;;0.00;0.00;;;;;;;;;;5044997;28;20092;-80
2024/01/10 06:56:13;;;;;;;0.00;0.00;;;;;;;;;;5038892;28;20086;-80
2024/01/10 06:58:54;;;;;;;0.00;0.00;;;;;;;;;;5048459;28;20382;-83
2024/01/10 07:01:32;;;;;;;0.00;0.00;;;;;;;;;;5023818;28;20032;-82
2024/01/10 07:03:57;;;;;;;0.00;0.00;;;;;;;;;;5036611;28;20033;-82
2024/01/10 07:06:23;;;;;;;0.00;0.00;;;;;;;;;;5059480;28;20045;-82
2024/01/10 07:08:50;;;;;;;0.00;0.00;;;;;;;;;;5049789;28;20037;-82
2024/01/10 07:11:19;;;;;;;0.00;0.00;;;;;;;;;;5023032;28;20112;-79
2024/01/10 07:13:48;;;;;;;0.00;0.00;;;;;;;;;;5016648;28;20069;-80
2024/01/10 07:16:16;;;;;;;0.00;0.00;;;;;;;;;;5042810;28;20079;-84
2024/01/10 07:18:47;;;;;;;0.00;0.00;;;;;;;;;;5026591;28;20072;-81
2024/01/10 07:21:23;;;;;;;0.00;0.00;;;;;;;;;;5038130;28;20041;-84
2024/01/10 07:23:49;;;;;;;0.00;0.00;;;;;;;;;;5023522;28;20454;-83
2024/01/10 07:26:16;;;;;;;0.00;0.00;;;;;;;;;;5001284;28;20068;-81
2024/01/10 07:28:44;;;;;;;0.00;0.00;;;;;;;;;;5006026;28;20429;-84
2024/01/10 07:31:11;;;;;;;0.00;0.00;;;;;;;;;;5022587;28;20107;-82
2024/01/10 07:33:56;;;;;;;0.00;0.00;;;;;;;;;;5039990;28;20049;-82
2024/01/10 07:36:33;;;;;;;0.00;0.00;;;;;;;;;;5023044;28;20362;-82
2024/01/10 07:39:00;;;;;;;0.00;0.00;;;;;;;;;;5003788;28;20040;-82
2024/01/10 07:41:26;;;;;;;0.00;0.00;;;;;;;;;;5020967;28;20124;-82
2024/01/10 07:43:52;;;;;;;0.00;0.00;;;;;;;;;;5047007;28;20179;-82
2024/01/10 07:46:17;;;;;;;0.00;0.00;;;;;;;;;;5052250;28;20386;-82
2024/01/10 07:48:43;;;;;;;0.00;0.00;;;;;;;;;;5000586;28;20136;-85
2024/01/10 07:51:09;;;;;;;0.00;0.00;;;;;;;;;;4994704;28;20053;-84
2024/01/10 07:53:36;;;;;;;0.00;0.00;;;;;;;;;;5010172;28;20355;-82
2024/01/10 07:56:01;;;;;;;0.00;0.00;;;;;;;;;;5030177;28;20174;-81
2024/01/10 07:58:27;;;;;;;0.00;0.00;;;;;;;;;;5029993;28;20469;-81
2024/01/10 08:01:02;;;;;;;0.00;0.00;;;;;;;;;;5013859;28;20676;-82
2024/01/10 08:03:28;;;;;;;0.00;0.00;;;;;;;;;;5015524;28;20240;-84
2024/01/10 08:06:03;;;;;;;0.00;0.00;;;;;;;;;;5001909;28;20041;-86
2024/01/10 08:08:29;;;;;;;0.00;0.00;;;;;;;;;;5029518;28;20497;-87
2024/01/10 08:10:56;;;;;;;0.00;0.00;;;;;;;;;;5015772;28;20103;-83
2024/01/10 08:13:21;;;;;;;0.00;0.00;;;;;;;;;;5030890;28;20029;-82
2024/01/10 08:15:47;;;;;;;0.00;0.00;;;;;;;;;;5033776;28;20458;-81
2024/01/10 08:18:14;;;;;;;0.00;0.00;;;;;;;;;;5033710;28;20033;-82
2024/01/10 08:20:39;;;;;;;0.00;0.00;;;;;;;;;;5048906;28;20036;-79
2024/01/10 08:23:05;;;;;;;0.00;0.00;;;;;;;;;;5029780;28;20059;-78
2024/01/10 08:25:30;;;;;;;0.00;0.00;;;;;;;;;;5029696;28;20047;-82
2024/01/10 08:27:57;;;;;;;0.00;0.00;;;;;;;;;;5054777;28;20036;-82
2024/01/10 08:30:23;;;;;;;0.00;0.00;;;;;;;;;;5057794;28;20458;-82
2024/01/10 08:32:50;;;;;;;0.00;0.00;;;;;;;;;;5039512;28;20378;-82
2024/01/10 08:35:16;;;;;;;0.00;0.00;;;;;;;;;;5014546;28;20454;-82
2024/01/10 08:37:53;;;;;;;0.00;0.00;;;;;;;;;;5033218;28;20112;-82
2024/01/10 08:40:21;;;;;;;0.00;0.00;;;;;;;;;;5022694;28;20033;-82
2024/01/10 08:42:46;;;;;;;0.00;0.00;;;;;;;;;;5024315;28;20116;-81
2024/01/10 08:45:12;;;;;;;0.00;0.00;;;;;;;;;;5056868;28;20461;-81
2024/01/10 08:47:38;;;;;;;0.00;0.00;;;;;;;;;;5056988;28;20056;-83
2024/01/10 08:50:08;;;;;;;0.00;0.00;;;;;;;;;;5041358;28;20040;-80
2024/01/10 08:52:37;;;;;;;0.00;0.00;;;;;;;;;;5034838;28;20021;-80
2024/01/10 08:55:04;;;;;;;0.00;0.00;;;;;;;;;;5031563;28;20029;-81
2024/01/10 08:57:30;;;;;;;0.00;0.00;;;;;;;;;;5057993;28;20037;-82
2024/01/10 08:59:59;;;;;;;0.00;0.00;;;;;;;;;;5048695;28;20648;-81
2024/01/10 09:02:27;;;;;;;0.00;0.00;;;;;;;;;;5020488;28;20041;-82
2024/01/10 09:04:53;;;;;;;0.00;0.00;;;;;;;;;;5053584;28;20025;-81
2024/01/10 09:07:27;;;;;;;0.00;0.00;;;;;;;;;;5009069;28;20040;-84
2024/01/10 09:09:53;;;;;;;0.00;0.00;;;;;;;;;;4991150;28;20040;-83
2024/01/10 09:12:36;;;;;;;0.00;0.00;;;;;;;;;;5012690;28;20041;-86
2024/01/10 09:15:02;;;;;;;0.00;0.00;;;;;;;;;;4998115;28;20348;-83
2024/01/10 09:17:28;;;;;;;0.00;0.00;;;;;;;;;;5027988;28;20089;-82
2024/01/10 09:19:55;;;;;;;0.00;0.00;;;;;;;;;;5020408;28;20028;-86
2024/01/10 09:22:21;;;;;;;0.00;0.00;;;;;;;;;;5006672;28;20039;-83
2024/01/10 09:24:47;;;;;;;0.00;0.00;;;;;;;;;;5013359;28;20021;-84
2024/01/10 09:27:13;;;;;;;0.00;0.00;;;;;;;;;;5024631;28;20132;-81
2024/01/10 09:29:38;;;;;;;0.00;0.00;;;;;;;;;;5044187;28;20414;-79
2024/01/10 09:32:04;;;;;;;0.00;0.00;;;;;;;;;;5042166;28;20178;-78
2024/01/10 09:34:39;;;;;;;0.00;0.00;;;;;;;;;;5046999;28;20025;-78
2024/01/10 09:37:05;;;;;;;0.00;0.00;;;;;;;;;;5016673;28;20080;-80
2024/01/10 09:39:31;;;;;;;0.00;0.00;;;;;;;;;;5053337;28;20057;-79
2024/01/10 09:41:57;;;;;;;0.00;0.00;;;;;;;;;;5030571;28;20172;-78
2024/01/10 09:44:23;;;;;;;0.00;0.00;;;;;;;;;;5037082;28;20032;-80
2024/01/10 09:46:54;;;;;;;0.00;0.00;;;;;;;;;;5052884;28;20058;-83
2024/01/10 09:49:21;;;;;;;0.00;0.00;;;;;;;;;;5049289;28;20441;-85
2024/01/10 09:51:48;;;;;;;0.00;0.00;;;;;;;;;;5019691;28;20037;-86
2024/01/10 09:54:14;;;;;;;0.00;0.00;;;;;;;;;;5034418;28;20029;-83
2024/01/10 09:56:40;;;;;;;0.00;0.00;;;;;;;;;;4993987;28;20045;-83
2024/01/10 09:59:11;;;;;;;0.00;0.00;;;;;;;;;;5014447;28;20040;-89
2024/01/10 10:01:39;;;;;;;0.00;0.00;;;;;;;;;;5007095;28;20044;-81
2024/01/10 10:04:07;;;;;;;0.00;0.00;;;;;;;;;;5016271;28;20031;-81
2024/01/10 10:06:34;;;;;;;0.00;0.00;;;;;;;;;;5016036;28;20036;-82
2024/01/10 10:09:01;;;;;;;0.00;0.00;;;;;;;;;;5039272;28;20051;-81
2024/01/10 10:11:29;;;;;;;0.00;0.00;;;;;;;;;;5056100;28;20025;-79
2024/01/10 10:13:55;;;;;;;0.00;0.00;;;;;;;;;;5028065;28;20047;-80
2024/01/10 10:16:28;;;;;;;0.00;0.00;;;;;;;;;;5048719;28;20150;-79
2024/01/10 10:18:58;;;;;;;0.00;0.00;;;;;;;;;;5071342;28;20044;-78
2024/01/10 10:21:27;;;;;;;0.00;0.00;;;;;;;;;;5046729;28;20033;-77
2024/01/10 10:24:08;;;;;;;0.00;0.00;;;;;;;;;;5017387;28;20037;-82
2024/01/10 10:26:34;;;;;;;0.00;0.00;;;;;;;;;;5001850;28;20034;-80
2024/01/10 10:29:02;;;;;;;0.00;0.00;;;;;;;;;;5027178;28;20041;-81
2024/01/10 10:31:31;;;;;;;0.00;0.00;;;;;;;;;;5056915;28;20028;-79
2024/01/10 10:33:57;;;;;;;0.00;0.00;;;;;;;;;;5053245;28;20055;-79
2024/01/10 10:36:25;;;;;;;0.00;0.00;;;;;;;;;;5032049;28;20021;-81
2024/01/10 10:38:52;;;;;;;0.00;0.00;;;;;;;;;;5033405;28;20552;-82
2024/01/10 10:41:18;;;;;;;0.00;0.00;;;;;;;;;;5037267;28;20030;-79
2024/01/10 10:43:45;;;;;;;0.00;0.00;;;;;;;;;;5033075;28;20043;-80
2024/01/10 10:46:14;;;;;;;0.00;0.00;;;;;;;;;;5042948;28;20025;-79
2024/01/10 10:48:40;;;;;;;0.00;0.00;;;;;;;;;;5021267;28;20053;-79
2024/01/10 10:51:11;;;;;;;0.00;0.00;;;;;;;;;;5046683;28;20095;-82
2024/01/10 10:53:40;;;;;;;0.00;0.00;;;;;;;;;;5018685;28;20076;-82
2024/01/10 10:56:07;;;;;;;0.00;0.00;;;;;;;;;;5044141;28;20028;-79
2024/01/10 10:58:38;;;;;;;0.00;0.00;;;;;;;;;;5035819;28;20142;-78
2024/01/10 11:01:06;;;;;;;0.00;0.00;;;;;;;;;;5036059;28;20527;-80
2024/01/10 11:03:37;;;;;;;0.00;0.00;;;;;;;;;;5035142;28;20124;-79
2024/01/10 11:06:03;;;;;;;0.00;0.00;;;;;;;;;;5067450;28;20468;-79
2024/01/10 11:08:30;;;;;;;0.00;0.00;;;;;;;;;;5072938;28;20460;-78
2024/01/10 11:10:56;;;;;;;0.00;0.00;;;;;;;;;;5039249;28;20124;-78
2024/01/10 11:13:34;;;;;;;0.00;0.00;;;;;;;;;;5016337;28;20128;-78
2024/01/10 11:16:45;;;;;;;0.00;0.00;;;;;;;;;;5017715;28;20036;-77
2024/01/10 11:19:38;;;;;;;0.00;0.00;;;;;;;;;;4965280;28;20047;-81
2024/01/10 11:22:22;;;;;;;0.00;0.00;;;;;;;;;;5051849;28;20032;-78
2024/01/10 11:24:50;;;;;;;0.00;0.00;;;;;;;;;;5052148;28;20063;-80
2024/01/10 11:27:16;;;;;;;0.00;0.00;;;;;;;;;;5017412;28;20551;-80
2024/01/10 11:29:42;;;;;;;0.00;0.00;;;;;;;;;;5013720;28;20124;-78
2024/01/10 11:32:16;;;;;;;0.00;0.00;;;;;;;;;;5032904;28;20033;-78
2024/01/10 11:34:55;;;;;;;0.00;0.00;;;;;;;;;;5014227;28;20378;-82
2024/01/10 11:37:20;;;;;;;0.00;0.00;;;;;;;;;;5038231;28;20036;-80
2024/01/10 11:39:46;;;;;;;0.00;0.00;;;;;;;;;;5015517;28;20028;-80
2024/01/10 11:42:12;;;;;;;0.00;0.00;;;;;;;;;;5035144;28;20120;-80
2024/01/10 11:44:50;;;;;;;0.00;0.00;;;;;;;;;;5032067;28;20101;-78
2024/01/10 11:47:16;;;;;;;0.00;0.00;;;;;;;;;;5050477;28;20056;-80
2024/01/10 11:49:55;;;;;;;0.00;0.00;;;;;;;;;;5050134;28;20040;-79
2024/01/10 11:52:22;;;;;;;0.00;0.00;;;;;;;;;;5016555;28;20025;-78
2024/01/10 11:54:50;;;;;;;0.00;0.00;;;;;;;;;;5033992;28;20227;-79
2024/01/10 11:57:22;;;;;;;0.00;0.00;;;;;;;;;;5032704;28;20342;-79
2024/01/10 11:59:52;;;;;;;0.00;0.00;;;;;;;;;;5033137;28;20309;-79
2024/01/10 12:02:18;;;;;;;0.00;0.00;;;;;;;;;;5051399;28;20036;-79
2024/01/10 12:04:44;;;;;;;0.00;0.00;;;;;;;;;;5033512;28;20060;-79
2024/01/10 12:07:11;;;;;;;0.00;0.00;;;;;;;;;;5051397;28;20518;-79
2024/01/10 12:09:36;;;;;;;0.00;0.00;;;;;;;;;;5044672;28;20035;-78
2024/01/10 12:12:03;;;;;;;0.00;0.00;;;;;;;;;;5070821;28;20024;-79
2024/01/10 12:14:28;;;;;;;0.00;0.00;;;;;;;;;;5034455;28;20025;-79
2024/01/10 12:16:54;;;;;;;0.00;0.00;;;;;;;;;;5034179;28;20025;-79
2024/01/10 12:19:20;;;;;;;0.00;0.00;;;;;;;;;;5029661;28;20394;-79
2024/01/10 12:21:45;;;;;;;0.00;0.00;;;;;;;;;;5028975;28;20431;-78
2024/01/10 12:24:11;;;;;;;0.00;0.00;;;;;;;;;;5030994;28;20446;-79
2024/01/10 12:26:43;;;;;;;0.00;0.00;;;;;;;;;;5032734;28;20083;-79
2024/01/10 12:29:08;;;;;;;0.00;0.00;;;;;;;;;;5031646;28;20036;-78
2024/01/10 12:31:34;;;;;;;0.00;0.00;;;;;;;;;;5049775;28;20337;-78
2024/01/10 12:34:00;;;;;;;0.00;0.00;;;;;;;;;;4999620;28;20032;-78
2024/01/10 12:36:26;;;;;;;0.00;0.00;;;;;;;;;;5049909;28;20162;-78
2024/01/10 12:38:52;;;;;;;0.00;0.00;;;;;;;;;;5030610;28;20087;-78
2024/01/10 12:41:18;;;;;;;0.00;0.00;;;;;;;;;;5013599;28;20362;-78
2024/01/10 12:43:43;;;;;;;0.00;0.00;;;;;;;;;;5049482;28;20116;-79
2024/01/10 12:46:13;;;;;;;0.00;0.00;;;;;;;;;;5068375;28;20355;-78
2024/01/10 12:48:41;;;;;;;0.00;0.00;;;;;;;;;;5050700;28;20028;-78
2024/01/10 12:51:07;;;;;;;0.00;0.00;;;;;;;;;;5034267;28;20033;-78
2024/01/10 12:53:41;;;;;;;0.00;0.00;;;;;;;;;;5035223;28;20203;-78
2024/01/10 12:56:08;;;;;;;0.00;0.00;;;;;;;;;;5036571;28;20064;-80
2024/01/10 12:58:36;;;;;;;0.00;0.00;;;;;;;;;;5071482;28;20032;-78
2024/01/10 13:01:04;;;;;;;0.00;0.00;;;;;;;;;;5030531;28;20101;-78
2024/01/10 13:03:30;;;;;;;0.00;0.00;;;;;;;;;;5015131;28;20030;-78
2024/01/10 13:05:55;;;;;;;0.00;0.00;;;;;;;;;;5014352;28;20033;-78
2024/01/10 13:08:21;;;;;;;0.00;0.00;;;;;;;;;;4998720;28;20021;-78
2024/01/10 13:10:47;;;;;;;0.00;0.00;;;;;;;;;;5026450;28;20025;-79
2024/01/10 13:13:17;;;;;;;0.00;0.00;;;;;;;;;;5034798;28;20021;-79
2024/01/10 13:15:43;;;;;;;0.00;0.00;;;;;;;;;;5067475;28;20030;-79
2024/01/10 13:18:10;;;;;;;0.00;0.00;;;;;;;;;;5024079;28;20056;-78
2024/01/10 13:20:36;;;;;;;0.00;0.00;;;;;;;;;;5025155;28;20013;-80
2024/01/10 13:23:03;;;;;;;0.00;0.00;;;;;;;;;;5041546;28;20051;-80
2024/01/10 13:25:28;;;;;;;0.00;0.00;;;;;;;;;;5074255;28;20021;-79
2024/01/10 13:27:54;;;;;;;0.00;0.00;;;;;;;;;;5042237;28;20029;-78
2024/01/10 13:30:19;;;;;;;0.00;0.00;;;;;;;;;;5020688;28;20119;-79
2024/01/10 13:32:46;;;;;;;0.00;0.00;;;;;;;;;;5020779;28;20032;-78
2024/01/10 13:35:16;;;;;;;0.00;0.00;;;;;;;;;;5037311;28;20029;-79
2024/01/10 13:37:42;;;;;;;0.00;0.00;;;;;;;;;;5004655;28;20025;-78
2024/01/10 13:40:12;;;;;;;0.00;0.00;;;;;;;;;;5017141;28;20026;-79
2024/01/10 13:42:40;;;;;;;0.00;0.00;;;;;;;;;;5040278;28;20082;-79
2024/01/10 13:45:07;;;;;;;0.00;0.00;;;;;;;;;;5041728;28;20032;-79
2024/01/10 13:47:33;;;;;;;0.00;0.00;;;;;;;;;;5058528;28;20427;-79
2024/01/10 13:49:59;;;;;;;0.00;0.00;;;;;;;;;;5025645;28;20067;-79
2024/01/10 13:52:25;;;;;;;0.00;0.00;;;;;;;;;;5041699;28;20029;-79
2024/01/10 13:54:51;;;;;;;0.00;0.00;;;;;;;;;;5058358;28;20078;-79
2024/01/10 13:57:17;;;;;;;0.00;0.00;;;;;;;;;;5057748;28;20181;-79
2024/01/10 13:59:43;;;;;;;0.00;0.00;;;;;;;;;;5058315;28;20536;-80
2024/01/10 14:02:08;;;;;;;0.00;0.00;;;;;;;;;;5058176;28;20068;-79
2024/01/10 14:04:34;;;;;;;0.00;0.00;;;;;;;;;;5075890;28;20028;-80
2024/01/10 14:06:59;;;;;;;0.00;0.00;;;;;;;;;;5041362;28;20024;-79
2024/01/10 14:09:25;;;;;;;0.00;0.00;;;;;;;;;;5041307;28;20054;-80
2024/01/10 14:11:50;;;;;;;0.00;0.00;;;;;;;;;;5045488;28;20029;-79
2024/01/10 14:14:16;;;;;;;0.00;0.00;;;;;;;;;;5004948;28;20184;-79
2024/01/10 14:16:42;;;;;;;0.00;0.00;;;;;;;;;;5016629;28;20536;-80
2024/01/10 14:19:07;;;;;;;0.00;0.00;;;;;;;;;;5017537;28;20103;-84
2024/01/10 14:21:33;;;;;;;0.00;0.00;;;;;;;;;;5001633;28;20220;-79
2024/01/10 14:23:59;;;;;;;0.00;0.00;;;;;;;;;;5017868;28;20470;-79
2024/01/10 14:26:26;;;;;;;0.00;0.00;;;;;;;;;;5035476;28;20021;-80
2024/01/10 14:28:55;;;;;;;0.00;0.00;;;;;;;;;;5040591;28;21869;-80
2024/01/10 14:31:23;;;;;;;0.00;0.00;;;;;;;;;;5032337;28;20036;-80
2024/01/10 14:33:49;;;;;;;0.00;0.00;;;;;;;;;;5036436;28;20025;-81
2024/01/10 14:36:14;;;;;;;0.00;0.00;;;;;;;;;;5037112;28;20098;-81
2024/01/10 14:38:40;;;;;;;0.00;0.00;;;;;;;;;;5001380;28;20084;-81
2024/01/10 14:41:09;;;;;;;0.00;0.00;;;;;;;;;;5021365;28;20029;-81
2024/01/10 14:43:37;;;;;;;0.00;0.00;;;;;;;;;;5073709;28;20035;-81